Time;durP1;ratioP1;P1;durP2;ratioP2;P2;SDS_P1;SDS_P2;PMS_P1;PMS_P2;Temp;Humidity;BMP_temperature;BMP_pressure;BME280_temperature;BME280_humidity;BME280_pressure;Samples;Min_cycle;Max_cycle;Signal;HPM_P1;HPM_P2
2023/08/05 00:00:21;;;;;;;4.30;3.90;;;;;;;;;;5044969;28;20971;-80
2023/08/05 00:02:48;;;;;;;10.07;4.80;;;;;;;;;;5044491;28;20487;-79
2023/08/05 00:05:14;;;;;;;7.97;3.80;;;;;;;;;;5045012;28;20460;-79
2023/08/05 00:07:40;;;;;;;6.83;4.57;;;;;;;;;;5044733;28;20479;-80
2023/08/05 00:10:07;;;;;;;4.80;3.70;;;;;;;;;;5044190;28;23014;-80
2023/08/05 00:12:35;;;;;;;5.93;4.13;;;;;;;;;;5045359;28;20483;-81
2023/08/05 00:15:01;;;;;;;10.30;4.70;;;;;;;;;;5043669;28;20459;-80
2023/08/05 00:17:28;;;;;;;9.80;5.20;;;;;;;;;;5043137;28;20461;-80
2023/08/05 00:19:54;;;;;;;7.13;4.73;;;;;;;;;;5040856;28;20479;-80
2023/08/05 00:22:20;;;;;;;5.73;4.30;;;;;;;;;;5042800;28;20481;-80
2023/08/05 00:24:47;;;;;;;7.70;4.57;;;;;;;;;;5042442;28;20475;-80
2023/08/05 00:27:13;;;;;;;8.47;4.47;;;;;;;;;;5043488;28;20461;-80
2023/08/05 00:29:41;;;;;;;7.00;3.60;;;;;;;;;;5041926;28;20468;-80
2023/08/05 00:32:07;;;;;;;8.80;4.00;;;;;;;;;;5044376;28;20480;-80
2023/08/05 00:34:34;;;;;;;12.77;5.30;;;;;;;;;;5043833;28;21016;-80
2023/08/05 00:37:01;;;;;;;5.87;4.07;;;;;;;;;;5041984;28;20467;-80
2023/08/05 00:39:27;;;;;;;7.10;3.93;;;;;;;;;;5043958;28;20473;-80
2023/08/05 00:41:53;;;;;;;8.27;4.33;;;;;;;;;;5041604;28;20487;-80
2023/08/05 00:44:20;;;;;;;7.80;4.10;;;;;;;;;;5043827;28;20475;-80
2023/08/05 00:46:47;;;;;;;7.50;4.90;;;;;;;;;;5044148;28;20463;-80
2023/08/05 00:49:14;;;;;;;7.50;4.30;;;;;;;;;;5043623;28;20472;-80
2023/08/05 00:51:40;;;;;;;9.47;4.27;;;;;;;;;;5043221;28;21448;-80
2023/08/05 00:54:08;;;;;;;8.13;3.60;;;;;;;;;;5046939;28;20988;-80
2023/08/05 00:56:34;;;;;;;5.67;3.90;;;;;;;;;;5041153;28;20502;-80
2023/08/05 00:59:01;;;;;;;9.57;5.43;;;;;;;;;;5041719;28;21053;-79
2023/08/05 01:01:27;;;;;;;17.17;4.27;;;;;;;;;;5042200;28;20539;-79
2023/08/05 01:03:55;;;;;;;9.77;4.70;;;;;;;;;;5043108;28;20483;-79
2023/08/05 01:06:22;;;;;;;5.03;3.67;;;;;;;;;;5044083;28;20460;-80
2023/08/05 01:08:48;;;;;;;9.97;5.00;;;;;;;;;;5043100;28;20470;-80
2023/08/05 01:11:16;;;;;;;7.30;4.20;;;;;;;;;;5042864;28;20465;-80
2023/08/05 01:13:44;;;;;;;7.00;4.37;;;;;;;;;;5041394;28;20490;-80
2023/08/05 01:16:10;;;;;;;7.00;3.80;;;;;;;;;;5042673;28;20451;-80
2023/08/05 01:18:38;;;;;;;8.60;4.50;;;;;;;;;;5042072;28;20473;-80
2023/08/05 01:21:10;;;;;;;11.97;4.87;;;;;;;;;;5044094;28;20468;-80
2023/08/05 01:23:39;;;;;;;7.23;5.23;;;;;;;;;;5042033;28;20495;-79
2023/08/05 01:26:08;;;;;;;9.40;4.50;;;;;;;;;;5042013;28;20504;-80
2023/08/05 01:28:35;;;;;;;5.80;3.90;;;;;;;;;;5041600;28;20473;-80
2023/08/05 01:31:02;;;;;;;5.80;4.90;;;;;;;;;;5042690;28;20462;-80
2023/08/05 01:33:29;;;;;;;5.63;4.30;;;;;;;;;;5042707;28;20492;-80
2023/08/05 01:35:55;;;;;;;6.70;4.60;;;;;;;;;;5041976;28;20467;-80
2023/08/05 01:38:22;;;;;;;5.97;4.67;;;;;;;;;;5041498;28;20465;-80
2023/08/05 01:40:48;;;;;;;5.30;4.10;;;;;;;;;;5042146;28;20841;-79
2023/08/05 01:43:16;;;;;;;5.60;4.23;;;;;;;;;;5042653;28;20473;-80
2023/08/05 01:45:42;;;;;;;12.40;5.53;;;;;;;;;;5038852;28;20456;-80
2023/08/05 01:48:08;;;;;;;8.50;5.37;;;;;;;;;;5043559;28;20475;-80
2023/08/05 01:50:36;;;;;;;5.10;4.60;;;;;;;;;;5044194;28;20439;-80
2023/08/05 01:53:02;;;;;;;8.60;5.47;;;;;;;;;;5039876;28;20469;-80
2023/08/05 01:55:28;;;;;;;7.97;4.70;;;;;;;;;;5043504;28;20447;-80
2023/08/05 01:57:55;;;;;;;8.50;4.90;;;;;;;;;;5041202;28;21087;-80
2023/08/05 02:00:23;;;;;;;9.23;6.17;;;;;;;;;;5039783;28;20506;-80
2023/08/05 02:02:50;;;;;;;10.07;5.30;;;;;;;;;;5040220;28;21006;-80
2023/08/05 02:05:16;;;;;;;13.87;5.50;;;;;;;;;;5039524;28;20460;-81
2023/08/05 02:07:43;;;;;;;13.73;6.60;;;;;;;;;;5041099;28;20440;-80
2023/08/05 02:10:10;;;;;;;8.20;4.73;;;;;;;;;;5042576;28;20999;-79
2023/08/05 02:12:37;;;;;;;9.63;5.50;;;;;;;;;;5042290;28;20450;-80
2023/08/05 02:15:04;;;;;;;11.53;6.03;;;;;;;;;;5040559;28;20444;-79
2023/08/05 02:17:31;;;;;;;13.10;5.53;;;;;;;;;;5042664;28;20442;-80
2023/08/05 02:19:58;;;;;;;13.07;6.93;;;;;;;;;;5040252;28;20484;-80
2023/08/05 02:22:24;;;;;;;14.10;6.20;;;;;;;;;;5041355;28;20464;-80
2023/08/05 02:24:51;;;;;;;12.67;7.57;;;;;;;;;;5040472;28;20861;-80
2023/08/05 02:27:18;;;;;;;9.60;7.37;;;;;;;;;;5042657;28;20468;-80
2023/08/05 02:29:44;;;;;;;14.70;7.73;;;;;;;;;;5041201;28;20472;-80
2023/08/05 02:32:11;;;;;;;13.57;7.20;;;;;;;;;;5041405;28;20479;-80
2023/08/05 02:34:38;;;;;;;14.30;6.97;;;;;;;;;;5041589;28;20495;-80
2023/08/05 02:37:05;;;;;;;17.47;7.90;;;;;;;;;;5041383;28;20537;-79
2023/08/05 02:39:32;;;;;;;8.63;6.57;;;;;;;;;;5040507;28;20479;-80
2023/08/05 02:41:58;;;;;;;13.50;6.60;;;;;;;;;;5040759;28;20502;-79
2023/08/05 02:44:25;;;;;;;11.90;7.10;;;;;;;;;;5043074;28;20461;-80
2023/08/05 02:46:51;;;;;;;10.87;7.33;;;;;;;;;;5041412;28;20499;-80
2023/08/05 02:49:18;;;;;;;9.93;7.40;;;;;;;;;;5039394;28;20472;-80
2023/08/05 02:51:45;;;;;;;20.97;9.40;;;;;;;;;;5040625;28;20530;-79
2023/08/05 02:54:12;;;;;;;11.67;6.70;;;;;;;;;;5040031;28;20988;-80
2023/08/05 02:56:39;;;;;;;12.03;7.20;;;;;;;;;;5042854;28;20464;-79
2023/08/05 02:59:05;;;;;;;10.63;7.87;;;;;;;;;;5046467;28;20975;-80
2023/08/05 03:01:32;;;;;;;9.53;6.80;;;;;;;;;;5045983;28;20464;-80
2023/08/05 03:03:58;;;;;;;11.47;5.73;;;;;;;;;;5042933;28;20475;-80
2023/08/05 03:06:24;;;;;;;10.13;6.33;;;;;;;;;;5045796;28;20467;-80
2023/08/05 03:08:52;;;;;;;12.23;6.80;;;;;;;;;;5044232;28;20472;-80
2023/08/05 03:11:18;;;;;;;8.13;5.90;;;;;;;;;;5062590;28;20920;-80
2023/08/05 03:13:45;;;;;;;10.40;6.90;;;;;;;;;;5043944;28;20453;-80
2023/08/05 03:16:12;;;;;;;8.30;6.80;;;;;;;;;;5046309;28;20587;-79
2023/08/05 03:18:38;;;;;;;11.47;6.13;;;;;;;;;;5045282;28;20454;-80
2023/08/05 03:21:05;;;;;;;8.00;6.20;;;;;;;;;;5045108;28;20488;-80
2023/08/05 03:23:31;;;;;;;8.93;6.00;;;;;;;;;;5042574;28;20475;-80
2023/08/05 03:25:59;;;;;;;11.73;6.40;;;;;;;;;;5044510;28;20438;-80
2023/08/05 03:28:25;;;;;;;17.23;5.57;;;;;;;;;;5046069;28;20452;-80
2023/08/05 03:30:52;;;;;;;13.00;5.87;;;;;;;;;;5045662;28;20452;-80
2023/08/05 03:33:18;;;;;;;9.87;5.63;;;;;;;;;;5047422;28;20486;-79
2023/08/05 03:35:44;;;;;;;9.40;6.23;;;;;;;;;;5045384;28;21600;-80
2023/08/05 03:38:11;;;;;;;9.97;6.30;;;;;;;;;;5045673;28;21012;-80
2023/08/05 03:40:37;;;;;;;11.63;6.67;;;;;;;;;;5043324;28;21156;-80
2023/08/05 03:43:07;;;;;;;6.43;5.47;;;;;;;;;;5045145;28;20474;-80
2023/08/05 03:45:33;;;;;;;8.43;5.40;;;;;;;;;;5043064;28;20455;-80
2023/08/05 03:47:59;;;;;;;11.63;7.40;;;;;;;;;;5045422;28;20438;-80
2023/08/05 03:50:28;;;;;;;11.90;6.27;;;;;;;;;;5043709;28;20438;-80
2023/08/05 03:52:54;;;;;;;9.00;6.37;;;;;;;;;;5045759;28;20470;-80
2023/08/05 03:55:21;;;;;;;11.70;5.50;;;;;;;;;;5042375;28;20456;-80
2023/08/05 03:57:48;;;;;;;6.60;5.90;;;;;;;;;;5043928;28;21016;-79
2023/08/05 04:00:17;;;;;;;9.90;6.00;;;;;;;;;;5042650;28;20761;-80
2023/08/05 04:02:43;;;;;;;8.23;5.87;;;;;;;;;;5045750;28;20484;-80
2023/08/05 04:05:10;;;;;;;11.43;5.50;;;;;;;;;;5043955;28;20466;-79
2023/08/05 04:07:36;;;;;;;11.03;5.47;;;;;;;;;;5041486;28;20464;-80
2023/08/05 04:10:05;;;;;;;8.83;4.57;;;;;;;;;;5040656;28;20828;-80
2023/08/05 04:12:33;;;;;;;6.03;4.10;;;;;;;;;;5042838;28;20480;-79
2023/08/05 04:15:00;;;;;;;4.90;4.37;;;;;;;;;;5045590;28;20459;-80
2023/08/05 04:17:28;;;;;;;7.13;4.43;;;;;;;;;;5044564;28;20582;-80
2023/08/05 04:19:54;;;;;;;7.17;4.70;;;;;;;;;;5043522;28;20537;-80
2023/08/05 04:22:22;;;;;;;7.83;5.60;;;;;;;;;;5043307;28;21051;-80
2023/08/05 04:24:48;;;;;;;12.10;5.67;;;;;;;;;;5042249;28;20488;-79
2023/08/05 04:27:16;;;;;;;8.23;5.80;;;;;;;;;;5043940;28;20460;-80
2023/08/05 04:29:42;;;;;;;10.87;5.53;;;;;;;;;;5043133;28;20481;-80
2023/08/05 04:32:08;;;;;;;7.17;5.87;;;;;;;;;;5044241;28;20482;-80
2023/08/05 04:34:37;;;;;;;10.47;7.00;;;;;;;;;;5043452;28;20458;-80
2023/08/05 04:37:15;;;;;;;11.33;6.40;;;;;;;;;;5044621;28;20940;-80
2023/08/05 04:39:42;;;;;;;11.23;5.43;;;;;;;;;;5042496;28;20989;-80
2023/08/05 04:42:08;;;;;;;8.80;6.10;;;;;;;;;;5041317;28;20477;-79
2023/08/05 04:44:35;;;;;;;9.33;5.77;;;;;;;;;;5043230;28;20480;-80
2023/08/05 04:47:01;;;;;;;11.83;7.00;;;;;;;;;;5041164;28;20439;-80
2023/08/05 04:49:27;;;;;;;7.97;5.40;;;;;;;;;;5042869;28;20841;-79
2023/08/05 04:51:55;;;;;;;12.73;5.80;;;;;;;;;;5044430;28;20450;-80
2023/08/05 04:54:23;;;;;;;6.97;5.57;;;;;;;;;;5039723;28;20480;-80
2023/08/05 04:56:49;;;;;;;8.17;5.67;;;;;;;;;;5044392;28;20464;-79
2023/08/05 04:59:16;;;;;;;11.50;7.83;;;;;;;;;;5042160;28;20447;-80
2023/08/05 05:01:42;;;;;;;10.00;5.67;;;;;;;;;;5039987;28;20470;-79
2023/08/05 05:04:08;;;;;;;11.70;6.73;;;;;;;;;;5043457;28;20463;-79
2023/08/05 05:06:35;;;;;;;10.10;6.30;;;;;;;;;;5043007;28;20462;-79
2023/08/05 05:09:03;;;;;;;11.70;7.30;;;;;;;;;;5042820;28;20521;-80
2023/08/05 05:11:29;;;;;;;11.63;7.60;;;;;;;;;;5043116;28;20456;-80
2023/08/05 05:13:57;;;;;;;11.73;7.37;;;;;;;;;;5040543;28;20495;-79
2023/08/05 05:16:24;;;;;;;11.20;7.13;;;;;;;;;;5042617;28;20464;-80
2023/08/05 05:18:49;;;;;;;8.63;6.63;;;;;;;;;;5041724;28;21009;-80
2023/08/05 05:21:15;;;;;;;8.63;7.03;;;;;;;;;;5043092;28;20528;-79
2023/08/05 05:23:42;;;;;;;11.37;7.33;;;;;;;;;;5043337;28;20245;-80
2023/08/05 05:26:09;;;;;;;10.60;8.10;;;;;;;;;;5042164;28;20460;-80
2023/08/05 05:28:36;;;;;;;16.63;9.13;;;;;;;;;;5042003;28;20564;-79
2023/08/05 05:31:02;;;;;;;15.73;8.43;;;;;;;;;;5042527;28;20463;-80
2023/08/05 05:33:29;;;;;;;17.80;8.40;;;;;;;;;;5041046;28;20479;-80
2023/08/05 05:35:55;;;;;;;16.80;8.60;;;;;;;;;;5043508;28;20460;-80
2023/08/05 05:38:21;;;;;;;15.10;9.67;;;;;;;;;;5042148;28;20443;-80
2023/08/05 05:40:48;;;;;;;15.80;10.20;;;;;;;;;;5042907;28;20559;-80
2023/08/05 05:43:15;;;;;;;20.47;8.10;;;;;;;;;;5041431;28;20480;-80
2023/08/05 05:45:42;;;;;;;15.67;9.20;;;;;;;;;;5042208;28;20465;-80
2023/08/05 05:48:08;;;;;;;15.57;9.67;;;;;;;;;;5038832;28;21014;-80
2023/08/05 05:50:38;;;;;;;14.27;9.23;;;;;;;;;;5041141;28;20816;-80
2023/08/05 05:53:05;;;;;;;15.60;9.60;;;;;;;;;;5038032;28;20942;-80
2023/08/05 05:55:32;;;;;;;22.00;9.67;;;;;;;;;;5041020;28;20451;-80
2023/08/05 05:57:58;;;;;;;16.30;9.13;;;;;;;;;;5038670;28;20488;-80
2023/08/05 06:00:26;;;;;;;17.67;9.63;;;;;;;;;;5040283;28;20484;-80
2023/08/05 06:02:52;;;;;;;14.63;8.03;;;;;;;;;;5041117;28;20846;-80
2023/08/05 06:05:19;;;;;;;19.17;9.63;;;;;;;;;;5041870;28;20467;-79
2023/08/05 06:07:45;;;;;;;12.00;8.90;;;;;;;;;;5039723;28;20439;-80
2023/08/05 06:10:12;;;;;;;12.50;8.20;;;;;;;;;;5041755;28;20423;-79
2023/08/05 06:12:38;;;;;;;14.83;8.10;;;;;;;;;;5041206;28;20640;-79
2023/08/05 06:15:07;;;;;;;15.60;7.97;;;;;;;;;;5042145;28;20635;-80
2023/08/05 06:17:34;;;;;;;16.50;8.10;;;;;;;;;;5041530;28;21050;-79
2023/08/05 06:20:01;;;;;;;10.03;7.90;;;;;;;;;;5040516;28;20456;-80
2023/08/05 06:22:27;;;;;;;10.17;7.27;;;;;;;;;;5041979;28;20465;-79
2023/08/05 06:24:53;;;;;;;11.27;8.03;;;;;;;;;;5039180;28;20477;-80
2023/08/05 06:27:20;;;;;;;12.60;6.57;;;;;;;;;;5040342;28;20468;-80
2023/08/05 06:29:46;;;;;;;9.17;6.70;;;;;;;;;;5039326;28;20483;-80
2023/08/05 06:32:13;;;;;;;10.57;6.47;;;;;;;;;;5042350;28;20456;-80
2023/08/05 06:34:41;;;;;;;9.90;6.03;;;;;;;;;;5046386;28;20530;-80
2023/08/05 06:37:08;;;;;;;10.20;6.50;;;;;;;;;;5045191;28;20459;-80
2023/08/05 06:39:34;;;;;;;9.43;5.33;;;;;;;;;;5045748;28;20482;-80
2023/08/05 06:42:01;;;;;;;8.33;5.03;;;;;;;;;;5046262;28;20483;-79
2023/08/05 06:44:27;;;;;;;10.40;5.47;;;;;;;;;;5043737;28;20545;-80
2023/08/05 06:46:54;;;;;;;14.83;6.07;;;;;;;;;;5044167;28;20539;-80
2023/08/05 06:49:21;;;;;;;5.97;4.83;;;;;;;;;;5044324;28;20465;-80
2023/08/05 06:51:50;;;;;;;9.53;5.67;;;;;;;;;;5045923;28;20472;-80
2023/08/05 06:54:16;;;;;;;11.10;6.03;;;;;;;;;;5046911;28;20468;-80
2023/08/05 06:56:43;;;;;;;5.87;5.23;;;;;;;;;;5046846;28;20965;-80
2023/08/05 06:59:09;;;;;;;18.23;7.17;;;;;;;;;;5043167;28;20491;-80
2023/08/05 07:01:35;;;;;;;7.70;5.20;;;;;;;;;;5043539;28;20917;-80
2023/08/05 07:04:02;;;;;;;10.67;5.20;;;;;;;;;;5046657;28;20482;-80
2023/08/05 07:06:28;;;;;;;8.80;5.60;;;;;;;;;;5042952;28;20456;-81
2023/08/05 07:08:56;;;;;;;10.00;6.40;;;;;;;;;;5043884;28;20530;-80
2023/08/05 07:11:23;;;;;;;9.20;5.30;;;;;;;;;;5043619;28;20440;-80
2023/08/05 07:13:49;;;;;;;10.50;4.80;;;;;;;;;;5041703;28;20480;-80
2023/08/05 07:16:15;;;;;;;6.40;5.30;;;;;;;;;;5043649;28;20963;-80
2023/08/05 07:18:42;;;;;;;7.40;4.50;;;;;;;;;;5044992;28;20466;-80
2023/08/05 07:21:08;;;;;;;7.20;5.33;;;;;;;;;;5043826;28;20488;-80
2023/08/05 07:23:34;;;;;;;5.90;4.70;;;;;;;;;;5043758;28;20483;-80
2023/08/05 07:26:02;;;;;;;6.93;4.63;;;;;;;;;;5043829;28;20495;-82
2023/08/05 07:28:29;;;;;;;6.87;4.77;;;;;;;;;;5046360;28;20475;-80
2023/08/05 07:31:02;;;;;;;11.87;4.90;;;;;;;;;;5042871;28;20484;-80
2023/08/05 07:33:28;;;;;;;8.90;4.87;;;;;;;;;;5043728;28;20486;-80
2023/08/05 07:35:56;;;;;;;15.23;5.30;;;;;;;;;;5043725;28;20470;-80
2023/08/05 07:38:25;;;;;;;5.70;4.23;;;;;;;;;;5041662;28;20472;-80
2023/08/05 07:40:54;;;;;;;8.20;4.10;;;;;;;;;;5044785;28;20484;-80
2023/08/05 07:43:23;;;;;;;8.43;4.77;;;;;;;;;;5040803;28;20473;-80
2023/08/05 07:45:50;;;;;;;9.70;3.80;;;;;;;;;;5044369;28;20551;-80
2023/08/05 07:48:16;;;;;;;6.63;3.50;;;;;;;;;;5044059;28;20478;-80
2023/08/05 07:50:42;;;;;;;9.00;4.03;;;;;;;;;;5043761;28;20441;-80
2023/08/05 07:53:09;;;;;;;6.87;4.20;;;;;;;;;;5043331;28;21002;-80
2023/08/05 07:55:37;;;;;;;6.83;3.60;;;;;;;;;;5044333;28;20509;-80
2023/08/05 07:58:04;;;;;;;7.87;3.60;;;;;;;;;;5045372;28;20467;-80
2023/08/05 08:00:33;;;;;;;8.43;3.47;;;;;;;;;;5042310;28;20472;-80
2023/08/05 08:02:59;;;;;;;4.87;2.90;;;;;;;;;;5043829;28;20549;-80
2023/08/05 08:05:26;;;;;;;6.50;3.47;;;;;;;;;;5043215;28;21119;-80
2023/08/05 08:07:55;;;;;;;4.70;3.03;;;;;;;;;;5044352;28;20966;-80
2023/08/05 08:10:24;;;;;;;5.10;3.73;;;;;;;;;;5042025;28;20942;-80
2023/08/05 08:12:51;;;;;;;5.43;3.00;;;;;;;;;;5042653;28;20907;-81
2023/08/05 08:15:17;;;;;;;2.93;2.57;;;;;;;;;;5043505;28;20521;-80
2023/08/05 08:17:45;;;;;;;5.67;2.70;;;;;;;;;;5043136;28;20464;-81
2023/08/05 08:20:12;;;;;;;5.90;2.47;;;;;;;;;;5041556;28;20974;-80
2023/08/05 08:22:39;;;;;;;7.10;2.63;;;;;;;;;;5044249;28;20495;-81
2023/08/05 08:25:06;;;;;;;5.30;2.20;;;;;;;;;;5043776;28;20879;-80
2023/08/05 08:27:32;;;;;;;4.73;2.70;;;;;;;;;;5045742;28;20482;-80
2023/08/05 08:29:59;;;;;;;2.87;2.57;;;;;;;;;;5042308;28;20453;-80
2023/08/05 08:32:25;;;;;;;4.73;2.97;;;;;;;;;;5042389;28;20464;-80
2023/08/05 08:34:53;;;;;;;6.87;3.00;;;;;;;;;;5042394;28;20473;-81
2023/08/05 08:37:19;;;;;;;3.50;2.50;;;;;;;;;;5043720;28;20488;-80
2023/08/05 08:39:46;;;;;;;2.47;2.10;;;;;;;;;;5044167;28;20465;-80
2023/08/05 08:42:12;;;;;;;4.80;2.70;;;;;;;;;;5043796;28;20492;-80
2023/08/05 08:44:39;;;;;;;2.80;2.43;;;;;;;;;;5043956;28;20467;-80
2023/08/05 08:47:06;;;;;;;2.33;2.13;;;;;;;;;;5028135;28;20452;-80
2023/08/05 08:49:32;;;;;;;7.07;2.90;;;;;;;;;;5043300;28;20484;-81
2023/08/05 08:52:01;;;;;;;7.33;4.10;;;;;;;;;;5044724;28;20893;-81
2023/08/05 08:54:27;;;;;;;4.13;2.73;;;;;;;;;;5042956;28;20505;-81
2023/08/05 08:56:53;;;;;;;6.00;2.70;;;;;;;;;;5039999;28;20460;-80
2023/08/05 08:59:20;;;;;;;2.67;2.47;;;;;;;;;;5042049;28;20500;-80
2023/08/05 09:01:47;;;;;;;6.50;2.70;;;;;;;;;;5043226;28;20487;-81
2023/08/05 09:04:13;;;;;;;3.67;2.30;;;;;;;;;;5040227;28;20482;-81
2023/08/05 09:06:41;;;;;;;7.13;2.43;;;;;;;;;;5042794;28;20891;-80
2023/08/05 09:09:08;;;;;;;3.60;2.33;;;;;;;;;;5042931;28;20564;-80
2023/08/05 09:11:35;;;;;;;5.37;3.10;;;;;;;;;;5040318;28;20451;-81
2023/08/05 09:14:04;;;;;;;3.33;2.50;;;;;;;;;;5040308;28;20563;-80
2023/08/05 09:16:30;;;;;;;3.63;2.50;;;;;;;;;;5043369;28;20517;-81
2023/08/05 09:19:00;;;;;;;3.30;2.27;;;;;;;;;;5043257;28;20468;-80
2023/08/05 09:21:27;;;;;;;3.80;3.20;;;;;;;;;;5041024;28;20571;-81
2023/08/05 09:23:54;;;;;;;2.60;2.40;;;;;;;;;;5043200;28;20472;-80
2023/08/05 09:26:35;;;;;;;4.23;2.00;;;;;;;;;;5039814;28;20460;-80
2023/08/05 09:29:05;;;;;;;3.20;2.17;;;;;;;;;;5040249;28;20583;-80
2023/08/05 09:31:31;;;;;;;2.97;2.33;;;;;;;;;;5043188;28;20969;-79
2023/08/05 09:33:57;;;;;;;6.83;2.13;;;;;;;;;;5040840;28;20488;-79
2023/08/05 09:36:25;;;;;;;5.13;2.60;;;;;;;;;;5040945;28;20460;-79
2023/08/05 09:39:00;;;;;;;3.57;2.53;;;;;;;;;;5040129;28;20479;-79
2023/08/05 09:41:28;;;;;;;4.87;2.17;;;;;;;;;;5039856;28;20483;-80
2023/08/05 09:43:58;;;;;;;5.10;2.73;;;;;;;;;;5043152;28;20841;-79
2023/08/05 09:46:25;;;;;;;4.40;2.80;;;;;;;;;;5042089;28;20466;-80
2023/08/05 09:48:56;;;;;;;4.63;2.50;;;;;;;;;;5043251;28;20476;-79
2023/08/05 09:51:22;;;;;;;3.70;1.83;;;;;;;;;;5042123;28;20878;-81
2023/08/05 09:53:52;;;;;;;7.30;2.73;;;;;;;;;;5042603;28;20470;-79
2023/08/05 09:56:20;;;;;;;2.73;2.40;;;;;;;;;;5042700;28;20852;-82
2023/08/05 09:58:47;;;;;;;4.37;2.60;;;;;;;;;;5040769;28;20504;-82
2023/08/05 10:01:15;;;;;;;3.53;2.77;;;;;;;;;;5041077;28;20464;-82
2023/08/05 10:03:42;;;;;;;4.30;3.17;;;;;;;;;;5043836;28;20477;-81
2023/08/05 10:06:08;;;;;;;3.93;3.30;;;;;;;;;;5042644;28;20550;-81
2023/08/05 10:08:36;;;;;;;7.27;3.20;;;;;;;;;;5038910;28;20483;-81
2023/08/05 10:11:04;;;;;;;3.60;2.70;;;;;;;;;;5042747;28;20463;-80
2023/08/05 10:13:33;;;;;;;3.50;2.20;;;;;;;;;;5040598;28;20479;-81
2023/08/05 10:15:59;;;;;;;4.23;2.80;;;;;;;;;;5040506;28;20452;-80
2023/08/05 10:18:27;;;;;;;4.87;3.00;;;;;;;;;;5042605;28;20478;-80
2023/08/05 10:20:53;;;;;;;5.40;3.03;;;;;;;;;;5040837;28;20459;-80
2023/08/05 10:23:20;;;;;;;2.93;2.47;;;;;;;;;;5039650;28;20484;-81
2023/08/05 10:25:47;;;;;;;4.80;3.73;;;;;;;;;;5043609;28;20502;-81
2023/08/05 10:28:28;;;;;;;3.83;2.80;;;;;;;;;;5041733;28;20482;-81
2023/08/05 10:30:55;;;;;;;3.07;2.53;;;;;;;;;;5042458;28;20471;-81
2023/08/05 10:33:22;;;;;;;8.97;3.00;;;;;;;;;;5039874;28;20487;-81
2023/08/05 10:35:50;;;;;;;6.77;3.13;;;;;;;;;;5037105;28;20994;-82
2023/08/05 10:38:17;;;;;;;4.33;3.13;;;;;;;;;;5040809;28;20467;-80
2023/08/05 10:40:47;;;;;;;3.80;2.60;;;;;;;;;;5042814;28;20460;-79
2023/08/05 10:43:25;;;;;;;6.00;3.30;;;;;;;;;;5041973;28;20869;-79
2023/08/05 10:45:52;;;;;;;5.67;3.23;;;;;;;;;;5040285;28;20453;-79
2023/08/05 10:48:18;;;;;;;4.77;2.90;;;;;;;;;;5043378;28;21135;-79
2023/08/05 10:50:45;;;;;;;3.00;2.60;;;;;;;;;;5040046;28;20464;-79
2023/08/05 10:53:13;;;;;;;5.63;3.30;;;;;;;;;;5038220;28;20515;-80
2023/08/05 10:55:47;;;;;;;7.53;2.53;;;;;;;;;;5043848;28;20478;-80
2023/08/05 10:58:14;;;;;;;3.30;3.00;;;;;;;;;;5038897;28;20522;-80
2023/08/05 11:00:42;;;;;;;6.90;2.90;;;;;;;;;;5042099;28;20466;-80
2023/08/05 11:03:26;;;;;;;7.37;2.97;;;;;;;;;;5038935;28;20757;-79
2023/08/05 11:05:55;;;;;;;11.10;3.30;;;;;;;;;;5040785;28;20464;-79
2023/08/05 11:08:23;;;;;;;4.30;2.40;;;;;;;;;;5042544;28;20472;-80
2023/08/05 11:10:50;;;;;;;3.30;2.63;;;;;;;;;;5040074;28;20467;-80
2023/08/05 11:13:16;;;;;;;4.90;3.07;;;;;;;;;;5040169;28;20480;-80
2023/08/05 11:15:42;;;;;;;5.13;3.17;;;;;;;;;;5041544;28;20464;-79
2023/08/05 11:18:09;;;;;;;4.27;2.83;;;;;;;;;;5040956;28;20529;-79
2023/08/05 11:20:35;;;;;;;5.50;3.00;;;;;;;;;;5045520;28;20463;-79
2023/08/05 11:23:02;;;;;;;4.77;2.90;;;;;;;;;;5045887;28;21009;-80
2023/08/05 11:25:30;;;;;;;3.93;2.50;;;;;;;;;;5046453;28;20463;-79
2023/08/05 11:27:57;;;;;;;3.23;2.93;;;;;;;;;;5041455;28;20471;-79
2023/08/05 11:30:23;;;;;;;4.60;2.70;;;;;;;;;;5045871;28;20460;-79
2023/08/05 11:32:55;;;;;;;3.17;2.67;;;;;;;;;;5043795;28;20475;-80
2023/08/05 11:35:21;;;;;;;6.13;3.23;;;;;;;;;;5043922;28;20491;-79
2023/08/05 11:37:47;;;;;;;5.70;2.93;;;;;;;;;;5045232;28;20452;-80
2023/08/05 11:40:14;;;;;;;4.47;3.10;;;;;;;;;;5045017;28;20451;-80
2023/08/05 11:42:44;;;;;;;5.47;2.90;;;;;;;;;;5041346;28;20488;-80
2023/08/05 11:45:12;;;;;;;3.87;3.27;;;;;;;;;;5043188;28;20468;-79
2023/08/05 11:47:40;;;;;;;4.70;2.93;;;;;;;;;;5043944;28;20449;-80
2023/08/05 11:50:06;;;;;;;4.10;2.90;;;;;;;;;;5043156;28;20455;-79
2023/08/05 11:52:33;;;;;;;3.07;2.77;;;;;;;;;;5045429;28;21013;-80
2023/08/05 11:55:00;;;;;;;3.53;2.40;;;;;;;;;;5045455;28;20466;-79
2023/08/05 11:57:26;;;;;;;6.30;3.30;;;;;;;;;;5045821;28;20460;-79
2023/08/05 11:59:55;;;;;;;4.30;3.10;;;;;;;;;;5045059;28;20471;-79
2023/08/05 12:02:22;;;;;;;7.07;3.20;;;;;;;;;;5043212;28;20495;-79
2023/08/05 12:04:49;;;;;;;3.50;3.20;;;;;;;;;;5043511;28;20499;-80
2023/08/05 12:07:17;;;;;;;4.37;3.07;;;;;;;;;;5042234;28;21081;-79
2023/08/05 12:09:43;;;;;;;5.60;2.70;;;;;;;;;;5043754;28;20475;-79
2023/08/05 12:12:15;;;;;;;3.53;3.23;;;;;;;;;;5045408;28;20476;-80
2023/08/05 12:14:41;;;;;;;5.20;2.67;;;;;;;;;;5042777;28;20484;-79
2023/08/05 12:17:09;;;;;;;4.63;3.87;;;;;;;;;;5043287;28;20478;-79
2023/08/05 12:19:35;;;;;;;3.30;2.97;;;;;;;;;;5044194;28;20491;-79
2023/08/05 12:22:01;;;;;;;4.10;3.20;;;;;;;;;;5044185;28;20547;-78
2023/08/05 12:24:28;;;;;;;3.80;2.70;;;;;;;;;;5041995;28;20855;-80
2023/08/05 12:26:54;;;;;;;4.30;2.70;;;;;;;;;;5043054;28;20468;-80
2023/08/05 12:29:20;;;;;;;6.00;3.43;;;;;;;;;;5042631;28;20473;-79
2023/08/05 12:31:47;;;;;;;4.40;2.60;;;;;;;;;;5042575;28;20475;-79
2023/08/05 12:34:17;;;;;;;3.70;2.90;;;;;;;;;;5041592;28;20480;-79
2023/08/05 12:36:44;;;;;;;3.30;2.80;;;;;;;;;;5043748;28;20967;-80
2023/08/05 12:39:10;;;;;;;5.20;2.87;;;;;;;;;;5042864;28;20476;-80
2023/08/05 12:41:37;;;;;;;6.10;3.40;;;;;;;;;;5040841;28;21013;-80
2023/08/05 12:44:03;;;;;;;5.10;2.40;;;;;;;;;;5042426;28;20472;-79
2023/08/05 12:46:31;;;;;;;3.63;2.30;;;;;;;;;;5044064;28;20539;-79
2023/08/05 12:48:57;;;;;;;4.13;2.83;;;;;;;;;;5044179;28;21013;-79
2023/08/05 12:51:25;;;;;;;5.23;3.20;;;;;;;;;;5041577;28;20862;-79
2023/08/05 12:53:51;;;;;;;7.70;3.30;;;;;;;;;;5041366;28;20478;-80
2023/08/05 12:56:18;;;;;;;4.50;2.97;;;;;;;;;;5043787;28;20471;-79
2023/08/05 12:58:45;;;;;;;3.60;2.90;;;;;;;;;;5041945;28;20472;-80
2023/08/05 13:01:11;;;;;;;4.27;2.70;;;;;;;;;;5040990;28;20992;-80
2023/08/05 13:03:38;;;;;;;11.90;5.43;;;;;;;;;;5040437;28;20844;-80
2023/08/05 13:06:04;;;;;;;3.47;2.93;;;;;;;;;;5044467;28;20467;-80
2023/08/05 13:08:32;;;;;;;5.37;2.97;;;;;;;;;;5042609;28;20480;-80
2023/08/05 13:10:58;;;;;;;3.10;2.77;;;;;;;;;;5042611;28;20455;-80
2023/08/05 13:13:25;;;;;;;3.20;2.60;;;;;;;;;;5040856;28;20488;-80
2023/08/05 13:15:52;;;;;;;3.13;2.73;;;;;;;;;;5041547;28;20497;-80
2023/08/05 13:18:18;;;;;;;4.10;3.37;;;;;;;;;;5039870;28;20491;-80
2023/08/05 13:20:44;;;;;;;8.30;4.20;;;;;;;;;;5042587;28;20467;-80
2023/08/05 13:23:11;;;;;;;8.87;3.70;;;;;;;;;;5041729;28;20479;-80
2023/08/05 13:25:38;;;;;;;8.43;3.03;;;;;;;;;;5042227;28;20519;-80
2023/08/05 13:28:04;;;;;;;3.47;2.53;;;;;;;;;;5043973;28;20464;-80
2023/08/05 13:30:30;;;;;;;5.37;2.97;;;;;;;;;;5042695;28;20464;-80
2023/08/05 13:32:57;;;;;;;2.50;2.30;;;;;;;;;;5041521;28;20491;-80
2023/08/05 13:35:23;;;;;;;4.83;2.97;;;;;;;;;;5042662;28;20456;-80
2023/08/05 13:37:49;;;;;;;4.20;2.90;;;;;;;;;;5044251;28;20468;-80
2023/08/05 13:40:16;;;;;;;3.60;2.87;;;;;;;;;;5041220;28;20925;-80
2023/08/05 13:42:43;;;;;;;5.93;2.57;;;;;;;;;;5041188;28;20492;-81
2023/08/05 13:45:10;;;;;;;3.73;3.10;;;;;;;;;;5042595;28;20463;-80
2023/08/05 13:47:36;;;;;;;2.57;2.37;;;;;;;;;;5039419;28;20459;-81
2023/08/05 13:50:03;;;;;;;4.07;3.20;;;;;;;;;;5042110;28;20560;-80
2023/08/05 13:52:30;;;;;;;3.67;2.73;;;;;;;;;;5041557;28;20508;-80
2023/08/05 13:54:56;;;;;;;2.77;2.57;;;;;;;;;;5043055;28;20476;-80
2023/08/05 13:57:23;;;;;;;4.60;3.07;;;;;;;;;;5043703;28;20464;-80
2023/08/05 13:59:51;;;;;;;2.67;2.47;;;;;;;;;;5042223;28;21021;-80
2023/08/05 14:02:17;;;;;;;4.03;2.77;;;;;;;;;;5042606;28;20481;-82
2023/08/05 14:04:43;;;;;;;2.20;1.97;;;;;;;;;;5039274;28;21009;-80
2023/08/05 14:07:10;;;;;;;3.13;2.60;;;;;;;;;;5041305;28;20845;-80
2023/08/05 14:09:36;;;;;;;4.07;2.70;;;;;;;;;;5041565;28;21008;-80
2023/08/05 14:12:03;;;;;;;2.63;2.43;;;;;;;;;;5042745;28;20483;-80
2023/08/05 14:14:29;;;;;;;3.40;2.40;;;;;;;;;;5040179;28;20998;-80
2023/08/05 14:16:57;;;;;;;2.90;2.60;;;;;;;;;;5040254;28;20468;-80
2023/08/05 14:19:23;;;;;;;4.57;2.50;;;;;;;;;;5038841;28;20481;-80
2023/08/05 14:21:50;;;;;;;3.47;2.40;;;;;;;;;;5039613;28;20490;-80
2023/08/05 14:24:19;;;;;;;2.70;2.50;;;;;;;;;;5038055;28;21033;-81
2023/08/05 14:26:45;;;;;;;2.47;2.27;;;;;;;;;;5039048;28;20461;-80
2023/08/05 14:29:13;;;;;;;3.27;2.60;;;;;;;;;;5040311;28;20476;-81
2023/08/05 14:31:39;;;;;;;3.07;2.67;;;;;;;;;;5042297;28;20508;-81
2023/08/05 14:34:07;;;;;;;2.60;2.37;;;;;;;;;;5043108;28;20465;-80
2023/08/05 14:36:33;;;;;;;3.37;2.83;;;;;;;;;;5042040;28;20455;-81
2023/08/05 14:39:01;;;;;;;3.00;2.47;;;;;;;;;;5039918;28;20473;-81